sensor_id;sensor_type;location;lat;lon;timestamp;temperature;humidity
51486;DHT22;37565;51.352;6.412;2022-09-28T00:01:20;19.20;99.90
51486;DHT22;37565;51.352;6.412;2022-09-28T00:03:50;19.20;99.90
51486;DHT22;37565;51.352;6.412;2022-09-28T00:06:21;19.20;99.90
51486;DHT22;37565;51.352;6.412;2022-09-28T00:08:50;19.20;99.90
51486;DHT22;37565;51.352;6.412;2022-09-28T00:11:21;19.20;99.90
51486;DHT22;37565;51.352;6.412;2022-09-28T00:13:51;19.10;99.90
51486;DHT22;37565;51.352;6.412;2022-09-28T00:16:20;19.10;99.90
51486;DHT22;37565;51.352;6.412;2022-09-28T00:18:48;19.10;99.90
51486;DHT22;37565;51.352;6.412;2022-09-28T00:21:19;19.10;99.90
51486;DHT22;37565;51.352;6.412;2022-09-28T00:23:51;19.10;99.90
51486;DHT22;37565;51.352;6.412;2022-09-28T00:26:39;19.10;99.90
51486;DHT22;37565;51.352;6.412;2022-09-28T00:29:14;19.00;99.90
51486;DHT22;37565;51.352;6.412;2022-09-28T00:31:42;19.10;99.90
51486;DHT22;37565;51.352;6.412;2022-09-28T00:34:11;19.00;99.90
51486;DHT22;37565;51.352;6.412;2022-09-28T00:36:42;19.00;99.90
51486;DHT22;37565;51.352;6.412;2022-09-28T00:39:12;19.00;99.90
51486;DHT22;37565;51.352;6.412;2022-09-28T00:41:42;19.00;99.90
51486;DHT22;37565;51.352;6.412;2022-09-28T00:44:34;19.00;99.90
51486;DHT22;37565;51.352;6.412;2022-09-28T00:47:15;19.00;99.90
51486;DHT22;37565;51.352;6.412;2022-09-28T00:49:47;19.00;99.90
51486;DHT22;37565;51.352;6.412;2022-09-28T00:52:20;18.90;99.90
51486;DHT22;37565;51.352;6.412;2022-09-28T00:54:50;18.90;99.90
51486;DHT22;37565;51.352;6.412;2022-09-28T00:57:21;18.90;99.90
51486;DHT22;37565;51.352;6.412;2022-09-28T00:59:50;18.90;99.90
51486;DHT22;37565;51.352;6.412;2022-09-28T01:02:18;18.90;99.90
51486;DHT22;37565;51.352;6.412;2022-09-28T01:04:47;18.90;99.90
51486;DHT22;37565;51.352;6.412;2022-09-28T01:07:16;18.90;99.90
51486;DHT22;37565;51.352;6.412;2022-09-28T01:09:45;18.90;99.90
51486;DHT22;37565;51.352;6.412;2022-09-28T01:12:13;18.90;99.90
51486;DHT22;37565;51.352;6.412;2022-09-28T01:14:43;18.90;99.90
51486;DHT22;37565;51.352;6.412;2022-09-28T01:17:13;18.90;99.90
51486;DHT22;37565;51.352;6.412;2022-09-28T01:20:11;18.90;99.90
51486;DHT22;37565;51.352;6.412;2022-09-28T01:25:41;18.90;99.90
51486;DHT22;37565;51.352;6.412;2022-09-28T01:28:14;18.90;99.90
51486;DHT22;37565;51.352;6.412;2022-09-28T01:30:48;18.90;99.90
51486;DHT22;37565;51.352;6.412;2022-09-28T01:33:22;18.90;99.90
51486;DHT22;37565;51.352;6.412;2022-09-28T01:35:55;18.90;99.90
51486;DHT22;37565;51.352;6.412;2022-09-28T01:38:27;18.90;99.90
51486;DHT22;37565;51.352;6.412;2022-09-28T01:40:58;18.90;99.90
51486;DHT22;37565;51.352;6.412;2022-09-28T01:43:29;18.90;99.90
51486;DHT22;37565;51.352;6.412;2022-09-28T01:46:05;18.90;99.90
51486;DHT22;37565;51.352;6.412;2022-09-28T01:48:37;18.90;99.90
51486;DHT22;37565;51.352;6.412;2022-09-28T01:51:09;18.90;99.90
51486;DHT22;37565;51.352;6.412;2022-09-28T01:53:40;18.90;99.90
51486;DHT22;37565;51.352;6.412;2022-09-28T01:56:14;18.90;99.90
51486;DHT22;37565;51.352;6.412;2022-09-28T01:58:47;18.80;99.90
51486;DHT22;37565;51.352;6.412;2022-09-28T02:01:22;18.80;99.90
51486;DHT22;37565;51.352;6.412;2022-09-28T02:03:55;18.80;99.90
51486;DHT22;37565;51.352;6.412;2022-09-28T02:06:30;18.80;99.90
51486;DHT22;37565;51.352;6.412;2022-09-28T02:09:03;18.80;99.90
51486;DHT22;37565;51.352;6.412;2022-09-28T02:11:36;18.80;99.90
51486;DHT22;37565;51.352;6.412;2022-09-28T02:14:08;18.80;99.90
51486;DHT22;37565;51.352;6.412;2022-09-28T02:16:39;18.80;99.90
51486;DHT22;37565;51.352;6.412;2022-09-28T02:19:09;18.80;99.90
51486;DHT22;37565;51.352;6.412;2022-09-28T02:21:41;18.70;99.90
51486;DHT22;37565;51.352;6.412;2022-09-28T02:24:14;18.80;99.90
51486;DHT22;37565;51.352;6.412;2022-09-28T02:26:48;18.80;99.90
51486;DHT22;37565;51.352;6.412;2022-09-28T02:29:18;18.70;99.90
51486;DHT22;37565;51.352;6.412;2022-09-28T02:31:46;18.80;99.90
51486;DHT22;37565;51.352;6.412;2022-09-28T02:34:14;18.70;99.90
51486;DHT22;37565;51.352;6.412;2022-09-28T02:36:43;18.70;99.90
51486;DHT22;37565;51.352;6.412;2022-09-28T02:39:12;18.80;99.90
51486;DHT22;37565;51.352;6.412;2022-09-28T02:41:51;18.80;99.90
51486;DHT22;37565;51.352;6.412;2022-09-28T02:44:40;18.70;99.90
51486;DHT22;37565;51.352;6.412;2022-09-28T02:47:16;18.80;99.90
51486;DHT22;37565;51.352;6.412;2022-09-28T02:49:53;18.80;99.90
51486;DHT22;37565;51.352;6.412;2022-09-28T02:52:49;18.70;99.90
51486;DHT22;37565;51.352;6.412;2022-09-28T02:55:31;18.70;99.90
51486;DHT22;37565;51.352;6.412;2022-09-28T02:58:21;18.70;99.90
51486;DHT22;37565;51.352;6.412;2022-09-28T03:00:59;18.70;99.90
51486;DHT22;37565;51.352;6.412;2022-09-28T03:03:32;18.80;99.90
51486;DHT22;37565;51.352;6.412;2022-09-28T03:06:08;18.70;99.90
51486;DHT22;37565;51.352;6.412;2022-09-28T03:08:41;18.80;99.90
51486;DHT22;37565;51.352;6.412;2022-09-28T03:11:13;18.80;99.90
51486;DHT22;37565;51.352;6.412;2022-09-28T03:13:43;18.70;99.90
51486;DHT22;37565;51.352;6.412;2022-09-28T03:16:15;18.70;99.90
51486;DHT22;37565;51.352;6.412;2022-09-28T03:18:44;18.70;99.90
51486;DHT22;37565;51.352;6.412;2022-09-28T03:21:12;18.80;99.90
51486;DHT22;37565;51.352;6.412;2022-09-28T03:23:41;18.70;99.90
51486;DHT22;37565;51.352;6.412;2022-09-28T03:26:10;18.70;99.90
51486;DHT22;37565;51.352;6.412;2022-09-28T03:28:38;18.70;99.90
51486;DHT22;37565;51.352;6.412;2022-09-28T03:31:06;18.70;99.90
51486;DHT22;37565;51.352;6.412;2022-09-28T03:33:36;18.70;99.90
51486;DHT22;37565;51.352;6.412;2022-09-28T03:36:04;18.70;99.90
51486;DHT22;37565;51.352;6.412;2022-09-28T03:38:34;18.70;99.90
51486;DHT22;37565;51.352;6.412;2022-09-28T03:41:02;18.70;99.90
51486;DHT22;37565;51.352;6.412;2022-09-28T03:43:30;18.70;99.90
51486;DHT22;37565;51.352;6.412;2022-09-28T03:45:59;18.70;99.90
51486;DHT22;37565;51.352;6.412;2022-09-28T03:48:29;18.70;99.90
51486;DHT22;37565;51.352;6.412;2022-09-28T03:51:01;18.70;99.90
51486;DHT22;37565;51.352;6.412;2022-09-28T03:53:31;18.70;99.90
51486;DHT22;37565;51.352;6.412;2022-09-28T03:56:01;18.70;99.90
51486;DHT22;37565;51.352;6.412;2022-09-28T03:58:30;18.70;99.90
51486;DHT22;37565;51.352;6.412;2022-09-28T04:01:01;18.70;99.90
51486;DHT22;37565;51.352;6.412;2022-09-28T04:03:30;18.70;99.90
51486;DHT22;37565;51.352;6.412;2022-09-28T04:06:00;18.70;99.90
51486;DHT22;37565;51.352;6.412;2022-09-28T04:08:28;18.70;99.90
51486;DHT22;37565;51.352;6.412;2022-09-28T04:10:56;18.70;99.90
51486;DHT22;37565;51.352;6.412;2022-09-28T04:13:24;18.70;99.90
51486;DHT22;37565;51.352;6.412;2022-09-28T04:15:53;18.70;99.90
51486;DHT22;37565;51.352;6.412;2022-09-28T04:18:22;18.70;99.90
51486;DHT22;37565;51.352;6.412;2022-09-28T04:20:59;18.70;99.90
51486;DHT22;37565;51.352;6.412;2022-09-28T04:23:29;18.70;99.90
51486;DHT22;37565;51.352;6.412;2022-09-28T04:25:57;18.70;99.90
51486;DHT22;37565;51.352;6.412;2022-09-28T04:28:25;18.70;99.90
51486;DHT22;37565;51.352;6.412;2022-09-28T04:31:12;18.70;99.90
51486;DHT22;37565;51.352;6.412;2022-09-28T04:33:41;18.70;99.90
51486;DHT22;37565;51.352;6.412;2022-09-28T04:36:10;18.80;99.90
51486;DHT22;37565;51.352;6.412;2022-09-28T04:38:38;18.80;99.90
51486;DHT22;37565;51.352;6.412;2022-09-28T04:41:19;18.80;99.90
51486;DHT22;37565;51.352;6.412;2022-09-28T04:43:48;18.80;99.90
51486;DHT22;37565;51.352;6.412;2022-09-28T04:46:16;18.80;99.90
51486;DHT22;37565;51.352;6.412;2022-09-28T04:48:44;18.80;99.90
51486;DHT22;37565;51.352;6.412;2022-09-28T04:51:14;18.70;99.90
51486;DHT22;37565;51.352;6.412;2022-09-28T04:53:42;18.70;99.90
51486;DHT22;37565;51.352;6.412;2022-09-28T04:56:11;18.70;99.90
51486;DHT22;37565;51.352;6.412;2022-09-28T04:58:40;18.60;99.90
51486;DHT22;37565;51.352;6.412;2022-09-28T05:01:10;18.70;99.90
51486;DHT22;37565;51.352;6.412;2022-09-28T05:03:39;18.60;99.90
51486;DHT22;37565;51.352;6.412;2022-09-28T05:06:08;18.60;99.90
51486;DHT22;37565;51.352;6.412;2022-09-28T05:08:37;18.60;99.90
51486;DHT22;37565;51.352;6.412;2022-09-28T05:11:09;18.60;99.90
51486;DHT22;37565;51.352;6.412;2022-09-28T05:13:39;18.60;99.90
51486;DHT22;37565;51.352;6.412;2022-09-28T05:16:11;18.60;99.90
51486;DHT22;37565;51.352;6.412;2022-09-28T05:18:41;18.60;99.90
51486;DHT22;37565;51.352;6.412;2022-09-28T05:21:10;18.60;99.90
51486;DHT22;37565;51.352;6.412;2022-09-28T05:23:40;18.60;99.90
51486;DHT22;37565;51.352;6.412;2022-09-28T05:26:12;18.60;99.90
51486;DHT22;37565;51.352;6.412;2022-09-28T05:28:40;18.60;99.90
51486;DHT22;37565;51.352;6.412;2022-09-28T05:31:08;18.60;99.90
51486;DHT22;37565;51.352;6.412;2022-09-28T05:33:36;18.60;99.90
51486;DHT22;37565;51.352;6.412;2022-09-28T05:36:07;18.60;99.90
51486;DHT22;37565;51.352;6.412;2022-09-28T05:38:36;18.50;99.90
51486;DHT22;37565;51.352;6.412;2022-09-28T05:41:05;18.60;99.90
51486;DHT22;37565;51.352;6.412;2022-09-28T05:43:33;18.50;99.90
51486;DHT22;37565;51.352;6.412;2022-09-28T05:46:01;18.50;99.90
51486;DHT22;37565;51.352;6.412;2022-09-28T05:48:29;18.50;99.90
51486;DHT22;37565;51.352;6.412;2022-09-28T05:50:57;18.50;99.90
51486;DHT22;37565;51.352;6.412;2022-09-28T05:53:25;18.60;99.90
51486;DHT22;37565;51.352;6.412;2022-09-28T05:55:56;18.50;99.90
51486;DHT22;37565;51.352;6.412;2022-09-28T05:58:26;18.50;99.90
51486;DHT22;37565;51.352;6.412;2022-09-28T06:00:55;18.50;99.90
51486;DHT22;37565;51.352;6.412;2022-09-28T06:03:23;18.50;99.90
51486;DHT22;37565;51.352;6.412;2022-09-28T06:05:51;18.50;99.90
51486;DHT22;37565;51.352;6.412;2022-09-28T06:08:19;18.50;99.90
51486;DHT22;37565;51.352;6.412;2022-09-28T06:10:47;18.50;99.90
51486;DHT22;37565;51.352;6.412;2022-09-28T06:13:15;18.50;99.90
51486;DHT22;37565;51.352;6.412;2022-09-28T06:15:45;18.50;99.90
51486;DHT22;37565;51.352;6.412;2022-09-28T06:18:13;18.50;99.90
51486;DHT22;37565;51.352;6.412;2022-09-28T06:20:41;18.50;99.90
51486;DHT22;37565;51.352;6.412;2022-09-28T06:23:10;18.50;99.90
51486;DHT22;37565;51.352;6.412;2022-09-28T06:25:38;18.50;99.90
51486;DHT22;37565;51.352;6.412;2022-09-28T06:28:09;18.50;99.90
51486;DHT22;37565;51.352;6.412;2022-09-28T06:30:37;18.60;99.90
51486;DHT22;37565;51.352;6.412;2022-09-28T06:33:10;18.60;99.90
51486;DHT22;37565;51.352;6.412;2022-09-28T06:35:38;18.70;99.90
51486;DHT22;37565;51.352;6.412;2022-09-28T06:38:06;18.70;99.90
51486;DHT22;37565;51.352;6.412;2022-09-28T06:40:34;18.70;99.90
51486;DHT22;37565;51.352;6.412;2022-09-28T06:43:04;18.70;99.90
51486;DHT22;37565;51.352;6.412;2022-09-28T06:45:36;18.80;99.90
51486;DHT22;37565;51.352;6.412;2022-09-28T06:48:07;18.80;99.90
51486;DHT22;37565;51.352;6.412;2022-09-28T06:50:38;18.90;99.90
51486;DHT22;37565;51.352;6.412;2022-09-28T06:53:08;18.90;99.90
51486;DHT22;37565;51.352;6.412;2022-09-28T06:55:38;18.90;99.90
51486;DHT22;37565;51.352;6.412;2022-09-28T06:58:08;18.90;99.90
51486;DHT22;37565;51.352;6.412;2022-09-28T07:00:37;18.90;99.90
51486;DHT22;37565;51.352;6.412;2022-09-28T07:03:10;19.00;99.90
51486;DHT22;37565;51.352;6.412;2022-09-28T07:05:40;19.00;99.90
51486;DHT22;37565;51.352;6.412;2022-09-28T07:08:09;19.00;99.90
51486;DHT22;37565;51.352;6.412;2022-09-28T07:10:40;19.00;99.90
51486;DHT22;37565;51.352;6.412;2022-09-28T07:13:09;19.00;99.90
51486;DHT22;37565;51.352;6.412;2022-09-28T07:16:00;19.00;99.90
51486;DHT22;37565;51.352;6.412;2022-09-28T07:18:29;19.10;99.90
51486;DHT22;37565;51.352;6.412;2022-09-28T07:20:57;19.10;99.90
51486;DHT22;37565;51.352;6.412;2022-09-28T07:23:28;19.00;99.90
51486;DHT22;37565;51.352;6.412;2022-09-28T07:25:57;19.10;99.90
51486;DHT22;37565;51.352;6.412;2022-09-28T07:28:31;19.10;99.90
51486;DHT22;37565;51.352;6.412;2022-09-28T07:30:59;19.10;99.90
51486;DHT22;37565;51.352;6.412;2022-09-28T07:33:30;19.10;99.90
51486;DHT22;37565;51.352;6.412;2022-09-28T07:35:59;19.10;99.90
51486;DHT22;37565;51.352;6.412;2022-09-28T07:38:32;19.10;99.90
51486;DHT22;37565;51.352;6.412;2022-09-28T07:41:00;19.10;99.90
51486;DHT22;37565;51.352;6.412;2022-09-28T07:43:42;19.10;99.90
51486;DHT22;37565;51.352;6.412;2022-09-28T07:46:10;19.10;99.90
51486;DHT22;37565;51.352;6.412;2022-09-28T07:48:41;19.10;99.90
51486;DHT22;37565;51.352;6.412;2022-09-28T07:51:11;19.10;99.90
51486;DHT22;37565;51.352;6.412;2022-09-28T07:53:39;19.10;99.90
51486;DHT22;37565;51.352;6.412;2022-09-28T07:56:08;19.10;99.90
51486;DHT22;37565;51.352;6.412;2022-09-28T07:58:37;19.10;99.90
51486;DHT22;37565;51.352;6.412;2022-09-28T08:01:07;19.10;99.90
51486;DHT22;37565;51.352;6.412;2022-09-28T08:03:37;19.10;99.90
51486;DHT22;37565;51.352;6.412;2022-09-28T08:06:07;19.10;99.90
51486;DHT22;37565;51.352;6.412;2022-09-28T08:21:24;19.10;99.90
51486;DHT22;37565;51.352;6.412;2022-09-28T08:24:10;19.20;99.90
51486;DHT22;37565;51.352;6.412;2022-09-28T08:26:38;19.20;99.90
51486;DHT22;37565;51.352;6.412;2022-09-28T08:29:06;19.10;99.90
51486;DHT22;37565;51.352;6.412;2022-09-28T08:31:34;19.10;99.90
51486;DHT22;37565;51.352;6.412;2022-09-28T08:34:02;19.10;99.90
51486;DHT22;37565;51.352;6.412;2022-09-28T08:36:31;19.00;99.90
51486;DHT22;37565;51.352;6.412;2022-09-28T08:39:00;19.00;99.90
51486;DHT22;37565;51.352;6.412;2022-09-28T08:41:34;18.90;99.90
51486;DHT22;37565;51.352;6.412;2022-09-28T08:44:13;18.90;99.90
51486;DHT22;37565;51.352;6.412;2022-09-28T08:46:45;18.90;99.90
51486;DHT22;37565;51.352;6.412;2022-09-28T08:49:20;18.90;99.90
51486;DHT22;37565;51.352;6.412;2022-09-28T08:51:58;18.90;99.90
51486;DHT22;37565;51.352;6.412;2022-09-28T08:54:29;19.00;99.90
51486;DHT22;37565;51.352;6.412;2022-09-28T08:57:02;19.00;99.90
51486;DHT22;37565;51.352;6.412;2022-09-28T08:59:44;19.00;99.90
51486;DHT22;37565;51.352;6.412;2022-09-28T09:02:17;19.00;99.90
51486;DHT22;37565;51.352;6.412;2022-09-28T09:04:48;19.00;99.90
51486;DHT22;37565;51.352;6.412;2022-09-28T09:10:16;19.10;99.90
51486;DHT22;37565;51.352;6.412;2022-09-28T09:12:52;19.20;99.90
51486;DHT22;37565;51.352;6.412;2022-09-28T09:15:32;19.30;99.90
51486;DHT22;37565;51.352;6.412;2022-09-28T09:18:18;19.20;99.90
51486;DHT22;37565;51.352;6.412;2022-09-28T09:20:51;19.20;99.90
51486;DHT22;37565;51.352;6.412;2022-09-28T09:23:30;19.20;99.90
51486;DHT22;37565;51.352;6.412;2022-09-28T09:26:07;19.20;99.90
51486;DHT22;37565;51.352;6.412;2022-09-28T09:29:08;19.20;99.90
51486;DHT22;37565;51.352;6.412;2022-09-28T09:31:53;19.30;99.90
51486;DHT22;37565;51.352;6.412;2022-09-28T09:34:32;19.30;99.90
51486;DHT22;37565;51.352;6.412;2022-09-28T09:37:15;19.30;99.90
51486;DHT22;37565;51.352;6.412;2022-09-28T09:39:58;19.30;99.90
51486;DHT22;37565;51.352;6.412;2022-09-28T09:42:39;19.40;99.90
51486;DHT22;37565;51.352;6.412;2022-09-28T09:45:30;19.60;99.90
51486;DHT22;37565;51.352;6.412;2022-09-28T09:48:03;19.80;99.90
51486;DHT22;37565;51.352;6.412;2022-09-28T09:50:38;20.40;99.90
51486;DHT22;37565;51.352;6.412;2022-09-28T09:53:15;20.20;99.90
51486;DHT22;37565;51.352;6.412;2022-09-28T09:55:46;20.00;99.90
51486;DHT22;37565;51.352;6.412;2022-09-28T09:58:18;19.80;99.90
51486;DHT22;37565;51.352;6.412;2022-09-28T10:00:50;19.90;99.90
51486;DHT22;37565;51.352;6.412;2022-09-28T10:03:22;19.90;99.90
51486;DHT22;37565;51.352;6.412;2022-09-28T10:05:57;19.70;99.90
51486;DHT22;37565;51.352;6.412;2022-09-28T10:08:27;19.70;99.90
51486;DHT22;37565;51.352;6.412;2022-09-28T10:11:04;19.70;99.90
51486;DHT22;37565;51.352;6.412;2022-09-28T10:13:34;19.60;99.90
51486;DHT22;37565;51.352;6.412;2022-09-28T10:16:04;19.60;99.90
51486;DHT22;37565;51.352;6.412;2022-09-28T10:18:32;19.60;99.90
51486;DHT22;37565;51.352;6.412;2022-09-28T10:21:01;19.50;99.90
51486;DHT22;37565;51.352;6.412;2022-09-28T10:23:31;19.60;99.90
51486;DHT22;37565;51.352;6.412;2022-09-28T10:26:06;19.60;99.90
51486;DHT22;37565;51.352;6.412;2022-09-28T10:28:41;19.60;99.90
51486;DHT22;37565;51.352;6.412;2022-09-28T10:31:31;19.60;99.90
51486;DHT22;37565;51.352;6.412;2022-09-28T10:34:00;19.70;99.90
51486;DHT22;37565;51.352;6.412;2022-09-28T10:36:29;19.70;99.90
51486;DHT22;37565;51.352;6.412;2022-09-28T10:39:04;19.70;99.90
51486;DHT22;37565;51.352;6.412;2022-09-28T10:41:33;19.70;99.90
51486;DHT22;37565;51.352;6.412;2022-09-28T10:44:16;19.70;99.90
51486;DHT22;37565;51.352;6.412;2022-09-28T10:46:54;19.70;99.90
51486;DHT22;37565;51.352;6.412;2022-09-28T10:49:24;19.70;99.90
51486;DHT22;37565;51.352;6.412;2022-09-28T10:51:53;19.70;99.90
51486;DHT22;37565;51.352;6.412;2022-09-28T10:54:23;19.70;99.90
51486;DHT22;37565;51.352;6.412;2022-09-28T10:56:54;19.70;99.90
51486;DHT22;37565;51.352;6.412;2022-09-28T10:59:33;19.70;99.90
51486;DHT22;37565;51.352;6.412;2022-09-28T11:02:14;19.40;99.90
51486;DHT22;37565;51.352;6.412;2022-09-28T11:04:51;19.30;99.90
51486;DHT22;37565;51.352;6.412;2022-09-28T11:07:22;19.40;99.90
51486;DHT22;37565;51.352;6.412;2022-09-28T11:09:51;19.50;99.90
51486;DHT22;37565;51.352;6.412;2022-09-28T11:12:23;19.50;99.90
51486;DHT22;37565;51.352;6.412;2022-09-28T11:14:56;19.60;99.90
51486;DHT22;37565;51.352;6.412;2022-09-28T11:17:27;19.70;99.90
51486;DHT22;37565;51.352;6.412;2022-09-28T11:19:57;19.70;99.90
51486;DHT22;37565;51.352;6.412;2022-09-28T11:22:28;19.70;99.90
51486;DHT22;37565;51.352;6.412;2022-09-28T11:25:17;19.70;99.90
51486;DHT22;37565;51.352;6.412;2022-09-28T11:30:26;19.70;99.90
51486;DHT22;37565;51.352;6.412;2022-09-28T11:33:01;19.70;99.90
51486;DHT22;37565;51.352;6.412;2022-09-28T11:35:42;19.70;99.90
51486;DHT22;37565;51.352;6.412;2022-09-28T11:38:21;19.60;99.90
51486;DHT22;37565;51.352;6.412;2022-09-28T11:41:01;19.70;99.90
51486;DHT22;37565;51.352;6.412;2022-09-28T11:43:51;19.70;99.90
51486;DHT22;37565;51.352;6.412;2022-09-28T11:46:28;19.80;99.90
51486;DHT22;37565;51.352;6.412;2022-09-28T11:49:05;19.80;99.90
51486;DHT22;37565;51.352;6.412;2022-09-28T11:51:35;19.80;99.90
51486;DHT22;37565;51.352;6.412;2022-09-28T11:54:11;19.80;99.90
51486;DHT22;37565;51.352;6.412;2022-09-28T11:56:43;19.80;99.90
51486;DHT22;37565;51.352;6.412;2022-09-28T11:59:19;19.80;99.90
51486;DHT22;37565;51.352;6.412;2022-09-28T12:01:50;19.80;99.90
51486;DHT22;37565;51.352;6.412;2022-09-28T12:04:24;19.80;99.90
51486;DHT22;37565;51.352;6.412;2022-09-28T12:06:58;19.80;99.90
51486;DHT22;37565;51.352;6.412;2022-09-28T12:09:35;19.80;99.90
51486;DHT22;37565;51.352;6.412;2022-09-28T12:12:14;19.90;99.90
51486;DHT22;37565;51.352;6.412;2022-09-28T12:14:46;19.90;99.90
51486;DHT22;37565;51.352;6.412;2022-09-28T12:17:21;19.90;99.90
51486;DHT22;37565;51.352;6.412;2022-09-28T12:19:54;19.90;99.90
51486;DHT22;37565;51.352;6.412;2022-09-28T12:22:30;19.90;99.90
51486;DHT22;37565;51.352;6.412;2022-09-28T12:25:00;19.90;99.90
51486;DHT22;37565;51.352;6.412;2022-09-28T12:27:36;19.90;99.90
51486;DHT22;37565;51.352;6.412;2022-09-28T12:30:14;19.90;99.90
51486;DHT22;37565;51.352;6.412;2022-09-28T12:32:45;19.90;99.90
51486;DHT22;37565;51.352;6.412;2022-09-28T12:35:21;20.00;99.90
51486;DHT22;37565;51.352;6.412;2022-09-28T12:38:07;20.00;99.90
51486;DHT22;37565;51.352;6.412;2022-09-28T12:40:49;20.00;99.90
51486;DHT22;37565;51.352;6.412;2022-09-28T12:43:50;19.90;99.90
51486;DHT22;37565;51.352;6.412;2022-09-28T12:46:33;19.90;99.90
51486;DHT22;37565;51.352;6.412;2022-09-28T12:49:25;19.90;99.90
51486;DHT22;37565;51.352;6.412;2022-09-28T12:52:27;19.90;99.90
51486;DHT22;37565;51.352;6.412;2022-09-28T12:55:18;19.90;99.90
51486;DHT22;37565;51.352;6.412;2022-09-28T12:57:58;19.90;99.90
51486;DHT22;37565;51.352;6.412;2022-09-28T13:00:34;19.90;99.90
51486;DHT22;37565;51.352;6.412;2022-09-28T13:06:19;19.90;99.90
51486;DHT22;37565;51.352;6.412;2022-09-28T13:09:01;19.90;99.90
51486;DHT22;37565;51.352;6.412;2022-09-28T13:11:33;19.90;99.90
51486;DHT22;37565;51.352;6.412;2022-09-28T13:14:21;20.00;99.90
51486;DHT22;37565;51.352;6.412;2022-09-28T13:16:55;20.00;99.90
51486;DHT22;37565;51.352;6.412;2022-09-28T13:19:34;20.00;99.90
51486;DHT22;37565;51.352;6.412;2022-09-28T13:22:18;20.00;99.90
51486;DHT22;37565;51.352;6.412;2022-09-28T13:24:48;20.00;99.90
51486;DHT22;37565;51.352;6.412;2022-09-28T13:27:23;20.00;99.90
51486;DHT22;37565;51.352;6.412;2022-09-28T13:29:55;20.10;99.90
51486;DHT22;37565;51.352;6.412;2022-09-28T13:32:27;20.10;99.90
51486;DHT22;37565;51.352;6.412;2022-09-28T13:34:58;20.00;99.90
51486;DHT22;37565;51.352;6.412;2022-09-28T13:37:28;20.10;99.90
51486;DHT22;37565;51.352;6.412;2022-09-28T13:39:56;20.10;99.90
51486;DHT22;37565;51.352;6.412;2022-09-28T13:42:58;20.10;99.90
51486;DHT22;37565;51.352;6.412;2022-09-28T13:45:38;20.10;99.90
51486;DHT22;37565;51.352;6.412;2022-09-28T13:48:13;20.10;99.90
51486;DHT22;37565;51.352;6.412;2022-09-28T13:51:01;20.10;99.90
51486;DHT22;37565;51.352;6.412;2022-09-28T13:53:49;20.10;99.90
51486;DHT22;37565;51.352;6.412;2022-09-28T13:56:29;20.00;99.90
51486;DHT22;37565;51.352;6.412;2022-09-28T13:59:06;20.00;99.90
51486;DHT22;37565;51.352;6.412;2022-09-28T14:01:38;20.00;99.90
51486;DHT22;37565;51.352;6.412;2022-09-28T14:04:14;20.00;99.90
51486;DHT22;37565;51.352;6.412;2022-09-28T14:06:52;20.10;99.90
51486;DHT22;37565;51.352;6.412;2022-09-28T14:09:40;20.10;99.90
51486;DHT22;37565;51.352;6.412;2022-09-28T14:12:28;20.00;99.90
51486;DHT22;37565;51.352;6.412;2022-09-28T14:14:59;20.00;99.90
51486;DHT22;37565;51.352;6.412;2022-09-28T14:17:58;19.90;99.90
51486;DHT22;37565;51.352;6.412;2022-09-28T14:20:29;20.00;99.90
51486;DHT22;37565;51.352;6.412;2022-09-28T14:26:24;20.00;99.90
51486;DHT22;37565;51.352;6.412;2022-09-28T14:29:03;19.90;99.90
51486;DHT22;37565;51.352;6.412;2022-09-28T14:31:40;19.90;99.90
51486;DHT22;37565;51.352;6.412;2022-09-28T14:34:24;19.90;99.90
51486;DHT22;37565;51.352;6.412;2022-09-28T14:36:52;19.90;99.90
51486;DHT22;37565;51.352;6.412;2022-09-28T14:39:43;19.90;99.90
51486;DHT22;37565;51.352;6.412;2022-09-28T14:42:30;19.90;99.90
51486;DHT22;37565;51.352;6.412;2022-09-28T14:48:11;19.90;99.90
51486;DHT22;37565;51.352;6.412;2022-09-28T14:50:40;20.00;99.90
51486;DHT22;37565;51.352;6.412;2022-09-28T14:53:10;20.00;99.90
51486;DHT22;37565;51.352;6.412;2022-09-28T14:55:45;20.00;99.90
51486;DHT22;37565;51.352;6.412;2022-09-28T14:58:21;20.00;99.90
51486;DHT22;37565;51.352;6.412;2022-09-28T15:00:57;20.00;99.90
51486;DHT22;37565;51.352;6.412;2022-09-28T15:03:28;20.00;99.90
51486;DHT22;37565;51.352;6.412;2022-09-28T15:05:58;20.00;99.90
51486;DHT22;37565;51.352;6.412;2022-09-28T15:08:37;20.00;99.90
51486;DHT22;37565;51.352;6.412;2022-09-28T15:11:11;20.00;99.90
51486;DHT22;37565;51.352;6.412;2022-09-28T15:13:41;20.00;99.90
51486;DHT22;37565;51.352;6.412;2022-09-28T15:16:12;20.00;99.90
51486;DHT22;37565;51.352;6.412;2022-09-28T15:19:11;20.10;99.90
51486;DHT22;37565;51.352;6.412;2022-09-28T15:21:43;20.00;99.90
51486;DHT22;37565;51.352;6.412;2022-09-28T15:24:27;20.10;99.90
51486;DHT22;37565;51.352;6.412;2022-09-28T15:26:59;20.10;99.90
51486;DHT22;37565;51.352;6.412;2022-09-28T15:29:27;20.10;99.90
51486;DHT22;37565;51.352;6.412;2022-09-28T15:31:57;20.10;99.90
51486;DHT22;37565;51.352;6.412;2022-09-28T15:34:27;20.10;99.90
51486;DHT22;37565;51.352;6.412;2022-09-28T15:37:14;20.10;99.90
51486;DHT22;37565;51.352;6.412;2022-09-28T15:39:43;20.10;99.90
51486;DHT22;37565;51.352;6.412;2022-09-28T15:42:16;20.00;99.90
51486;DHT22;37565;51.352;6.412;2022-09-28T15:45:01;20.00;99.90
51486;DHT22;37565;51.352;6.412;2022-09-28T15:47:30;20.00;99.90
51486;DHT22;37565;51.352;6.412;2022-09-28T15:49:59;20.00;99.90
51486;DHT22;37565;51.352;6.412;2022-09-28T15:52:34;20.00;99.90
51486;DHT22;37565;51.352;6.412;2022-09-28T15:55:11;19.90;99.90
51486;DHT22;37565;51.352;6.412;2022-09-28T15:57:46;19.90;99.90
51486;DHT22;37565;51.352;6.412;2022-09-28T16:00:25;19.90;99.90
51486;DHT22;37565;51.352;6.412;2022-09-28T16:03:20;20.00;99.90
51486;DHT22;37565;51.352;6.412;2022-09-28T16:05:50;20.00;99.90
51486;DHT22;37565;51.352;6.412;2022-09-28T16:08:19;20.00;99.90
51486;DHT22;37565;51.352;6.412;2022-09-28T16:10:55;20.00;99.90
51486;DHT22;37565;51.352;6.412;2022-09-28T16:13:25;19.90;99.90
51486;DHT22;37565;51.352;6.412;2022-09-28T16:15:56;19.90;99.90
51486;DHT22;37565;51.352;6.412;2022-09-28T16:18:26;19.90;99.90
51486;DHT22;37565;51.352;6.412;2022-09-28T16:21:16;19.90;99.90
51486;DHT22;37565;51.352;6.412;2022-09-28T16:23:49;19.90;99.90
51486;DHT22;37565;51.352;6.412;2022-09-28T16:26:28;19.90;99.90
51486;DHT22;37565;51.352;6.412;2022-09-28T16:28:59;19.90;99.90
51486;DHT22;37565;51.352;6.412;2022-09-28T16:31:32;19.90;99.90
51486;DHT22;37565;51.352;6.412;2022-09-28T16:34:14;19.90;99.90
51486;DHT22;37565;51.352;6.412;2022-09-28T16:36:44;19.90;99.90
51486;DHT22;37565;51.352;6.412;2022-09-28T16:39:13;19.90;99.90
51486;DHT22;37565;51.352;6.412;2022-09-28T16:41:44;19.90;99.90